createdAt,value
2023-01-13T00:00:47.614Z,30.75
2023-01-13T00:03:14.064Z,33.00
2023-01-13T00:05:40.612Z,31.60
2023-01-13T00:08:07.186Z,33.00
2023-01-13T00:10:34.640Z,29.75
2023-01-13T00:13:01.640Z,31.40
2023-01-13T00:15:28.225Z,30.25
2023-01-13T00:17:54.687Z,30.00
2023-01-13T00:20:21.224Z,29.00
2023-01-13T00:22:47.725Z,30.00
2023-01-13T00:25:14.220Z,29.00
2023-01-13T00:27:40.791Z,28.20
2023-01-13T00:30:07.644Z,28.75
2023-01-13T00:32:34.340Z,26.00
2023-01-13T00:35:00.789Z,25.60
2023-01-13T00:37:27.373Z,27.50
2023-01-13T00:39:53.889Z,24.60
2023-01-13T00:42:39.038Z,22.00
2023-01-13T00:45:05.943Z,22.60
2023-01-13T00:47:32.423Z,23.00
2023-01-13T00:49:58.904Z,23.00
2023-01-13T00:52:25.593Z,23.00
2023-01-13T00:54:52.036Z,23.00
2023-01-13T00:57:18.962Z,22.50
2023-01-13T00:59:45.436Z,22.00
2023-01-13T01:02:12.066Z,24.00
2023-01-13T01:04:38.635Z,23.80
2023-01-13T01:07:05.257Z,21.00
2023-01-13T01:09:34.639Z,21.50
2023-01-13T01:12:01.501Z,23.00
2023-01-13T01:14:28.208Z,20.20
2023-01-13T01:16:54.787Z,23.00
2023-01-13T01:19:21.350Z,22.00
2023-01-13T01:21:47.894Z,22.50
2023-01-13T01:24:16.650Z,23.00
2023-01-13T01:26:43.451Z,21.80
2023-01-13T01:29:12.319Z,23.00
2023-01-13T01:31:38.815Z,21.00
2023-01-13T01:34:05.304Z,22.00
2023-01-13T01:36:31.850Z,23.40
2023-01-13T01:38:58.972Z,22.00
2023-01-13T01:41:26.980Z,22.00
2023-01-13T01:43:59.601Z,21.50
2023-01-13T01:46:30.603Z,22.00
2023-01-13T01:49:00.535Z,23.50
2023-01-13T01:51:28.251Z,22.50
2023-01-13T01:53:56.888Z,22.40
2023-01-13T01:56:23.522Z,23.00
2023-01-13T01:58:51.417Z,22.50
2023-01-13T02:01:18.834Z,22.00
2023-01-13T02:03:49.874Z,22.00
2023-01-13T02:06:19.235Z,23.40
2023-01-13T02:08:46.422Z,22.60
2023-01-13T02:11:48.371Z,25.00
2023-01-13T02:14:14.907Z,21.00
2023-01-13T02:16:44.366Z,24.00
2023-01-13T02:19:23.179Z,24.00
2023-01-13T02:22:08.597Z,23.60
2023-01-13T02:24:56.788Z,24.00
2023-01-13T02:27:29.334Z,25.00
2023-01-13T02:30:14.515Z,24.20
2023-01-13T02:32:46.937Z,23.00
2023-01-13T02:35:33.630Z,24.75
2023-01-13T02:38:01.204Z,24.00
2023-01-13T02:40:33.447Z,23.60
2023-01-13T02:43:45.005Z,25.40
2023-01-13T02:46:17.633Z,24.50
2023-01-13T02:48:46.142Z,27.00
2023-01-13T02:51:15.141Z,25.25
2023-01-13T02:53:48.008Z,25.40
2023-01-13T02:56:15.506Z,25.75
2023-01-13T02:58:43.749Z,26.25
2023-01-13T03:01:10.248Z,28.00
2023-01-13T03:03:36.781Z,26.75
2023-01-13T03:06:09.395Z,25.25
2023-01-13T03:08:49.663Z,27.00
2023-01-13T03:11:18.506Z,25.00
2023-01-13T03:13:52.212Z,26.40
2023-01-13T03:16:38.519Z,24.00
2023-01-13T03:19:05.023Z,24.00
2023-01-13T03:21:50.040Z,23.80
2023-01-13T03:24:37.319Z,23.75
2023-01-13T03:27:11.463Z,24.40
2023-01-13T03:29:38.002Z,25.00
2023-01-13T03:32:11.233Z,22.00
2023-01-13T03:34:45.910Z,23.75
2023-01-13T03:37:14.273Z,23.00
2023-01-13T03:39:43.534Z,22.25
2023-01-13T03:42:21.188Z,21.00
2023-01-13T03:45:06.121Z,22.00
2023-01-13T03:47:39.025Z,23.25
2023-01-13T03:50:08.337Z,23.00
2023-01-13T03:52:36.964Z,23.00
2023-01-13T03:55:06.554Z,24.00
2023-01-13T03:57:36.061Z,24.25
2023-01-13T04:00:05.053Z,23.00
2023-01-13T04:02:53.583Z,23.00
2023-01-13T04:05:20.379Z,24.00
2023-01-13T04:07:56.423Z,22.60
2023-01-13T04:10:28.815Z,22.00
2023-01-13T04:13:05.335Z,23.40
2023-01-13T04:15:42.556Z,22.00
2023-01-13T04:18:20.786Z,21.00
2023-01-13T04:20:48.401Z,24.00
2023-01-13T04:23:15.612Z,24.00
2023-01-13T04:25:42.981Z,24.80
2023-01-13T04:28:09.973Z,24.00
2023-01-13T04:30:37.001Z,23.00
2023-01-13T04:33:06.810Z,23.60
2023-01-13T04:35:34.127Z,21.80
2023-01-13T04:38:02.047Z,23.00
2023-01-13T04:40:28.580Z,23.00
2023-01-13T04:42:55.163Z,24.67
2023-01-13T04:45:21.658Z,22.00
2023-01-13T04:47:48.732Z,23.00
2023-01-13T04:50:19.381Z,23.40
2023-01-13T04:52:46.555Z,24.25
2023-01-13T04:55:13.488Z,23.00
2023-01-13T04:57:40.024Z,23.00
2023-01-13T05:00:07.494Z,25.00
2023-01-13T05:02:34.064Z,25.75
2023-01-13T05:05:00.706Z,25.00
2023-01-13T05:07:27.494Z,24.40
2023-01-13T05:09:54.020Z,24.00
2023-01-13T05:12:43.493Z,26.00
2023-01-13T05:15:30.374Z,27.60
2023-01-13T05:17:57.135Z,26.50
2023-01-13T05:20:23.638Z,28.50
2023-01-13T05:23:08.853Z,28.40
2023-01-13T05:25:37.364Z,27.80
2023-01-13T05:28:03.880Z,29.00
2023-01-13T05:30:32.117Z,27.20
2023-01-13T05:32:58.629Z,28.00
2023-01-13T05:35:25.523Z,32.00
2023-01-13T05:37:52.105Z,33.00
2023-01-13T05:40:37.697Z,32.50
2023-01-13T05:43:24.655Z,34.25
2023-01-13T05:45:58.799Z,34.00
2023-01-13T05:48:26.971Z,29.00
2023-01-13T05:50:54.136Z,27.40
2023-01-13T05:53:21.465Z,27.00
2023-01-13T05:55:48.214Z,25.00
2023-01-13T05:58:16.284Z,28.25
2023-01-13T06:00:42.752Z,26.75
2023-01-13T06:03:09.472Z,28.20
2023-01-13T06:05:36.043Z,28.00
2023-01-13T06:08:04.143Z,29.25
2023-01-13T06:10:30.817Z,29.50
2023-01-13T06:12:57.326Z,35.00
2023-01-13T06:15:24.046Z,29.00
2023-01-13T06:17:50.593Z,29.00
2023-01-13T06:20:17.593Z,30.00
2023-01-13T06:22:45.896Z,34.00
2023-01-13T06:25:32.572Z,36.00
2023-01-13T06:28:00.049Z,31.00
2023-01-13T06:30:29.749Z,36.00
2023-01-13T06:32:58.893Z,35.00
2023-01-13T06:35:27.516Z,32.00
2023-01-13T06:37:55.872Z,31.00
2023-01-13T06:40:22.581Z,30.20
2023-01-13T06:43:07.780Z,31.00
2023-01-13T06:45:34.782Z,35.00
2023-01-13T06:48:01.353Z,32.00
2023-01-13T06:50:28.830Z,35.00
2023-01-13T06:52:55.324Z,34.00
2023-01-13T06:55:21.851Z,31.00
2023-01-13T06:57:49.409Z,31.00
2023-01-13T07:00:16.105Z,32.00
2023-01-13T07:02:42.700Z,30.00
2023-01-13T07:05:09.301Z,31.40
2023-01-13T07:07:35.892Z,38.40
2023-01-13T07:10:02.612Z,33.67
2023-01-13T07:12:29.099Z,31.40
2023-01-13T07:15:14.298Z,29.00
2023-01-13T07:17:40.795Z,31.00
2023-01-13T07:20:07.794Z,32.00
2023-01-13T07:22:34.261Z,31.00
2023-01-13T07:25:00.738Z,31.75
2023-01-13T07:27:27.196Z,30.00
2023-01-13T07:29:53.633Z,31.00
2023-01-13T07:32:20.234Z,33.75
2023-01-13T07:34:46.800Z,36.00
2023-01-13T07:37:13.276Z,32.00
2023-01-13T07:39:39.785Z,31.00
2023-01-13T07:42:24.985Z,29.50
2023-01-13T07:44:51.488Z,34.00
2023-01-13T07:47:17.947Z,30.00
2023-01-13T07:49:44.356Z,31.75
2023-01-13T07:52:10.830Z,30.00
2023-01-13T07:54:40.963Z,29.75
2023-01-13T07:57:07.985Z,30.50
2023-01-13T07:59:34.456Z,32.20
2023-01-13T08:02:01.094Z,32.00
2023-01-13T08:04:27.650Z,33.40
2023-01-13T08:06:54.116Z,33.60
2023-01-13T08:09:20.644Z,28.40
2023-01-13T08:12:07.012Z,28.25
2023-01-13T08:14:33.642Z,26.20
2023-01-13T08:17:00.119Z,29.00
2023-01-13T08:19:26.626Z,31.50
2023-01-13T08:21:53.111Z,29.00
2023-01-13T08:24:19.603Z,29.00
2023-01-13T08:26:46.104Z,33.25
2023-01-13T08:29:14.884Z,28.00
2023-01-13T08:31:41.705Z,27.00
2023-01-13T08:34:08.182Z,27.00
2023-01-13T08:36:34.776Z,34.00
2023-01-13T08:39:01.348Z,35.00
2023-01-13T08:41:46.562Z,28.75
2023-01-13T08:44:13.004Z,29.75
2023-01-13T08:46:39.532Z,26.00
2023-01-13T08:49:06.033Z,24.00
2023-01-13T08:51:32.654Z,24.00
2023-01-13T08:53:59.124Z,23.50
2023-01-13T08:56:25.585Z,23.40
2023-01-13T08:58:52.057Z,28.50
2023-01-13T09:01:21.308Z,30.20
2023-01-13T09:03:47.915Z,33.00
2023-01-13T09:06:14.565Z,35.00
2023-01-13T09:08:41.122Z,32.00
2023-01-13T09:11:30.807Z,25.20
2023-01-13T09:13:57.236Z,24.00
2023-01-13T09:16:23.690Z,22.00
2023-01-13T09:18:50.157Z,34.60
2023-01-13T09:21:19.799Z,28.00
2023-01-13T09:23:46.314Z,28.00
2023-01-13T09:26:14.181Z,28.00
2023-01-13T09:28:40.632Z,24.75
2023-01-13T09:31:07.228Z,24.00
2023-01-13T09:33:52.587Z,28.80
2023-01-13T09:36:19.361Z,27.00
2023-01-13T09:38:45.804Z,27.00
2023-01-13T09:41:39.255Z,25.75
2023-01-13T09:44:09.724Z,23.80
2023-01-13T09:46:47.145Z,24.00
2023-01-13T09:49:20.861Z,23.00
2023-01-13T09:51:53.184Z,22.00
2023-01-13T09:54:32.522Z,23.00
2023-01-13T09:56:59.383Z,22.00
2023-01-13T09:59:32.644Z,20.40
2023-01-13T10:02:18.019Z,19.25
2023-01-13T10:04:44.532Z,23.00
2023-01-13T10:07:13.914Z,21.20
2023-01-13T10:09:49.693Z,19.00
2023-01-13T10:12:41.527Z,20.00
2023-01-13T10:15:14.968Z,20.50
2023-01-13T10:17:50.664Z,20.00
2023-01-13T10:20:21.149Z,20.25
2023-01-13T10:22:47.549Z,20.50
2023-01-13T10:25:32.447Z,19.00
2023-01-13T10:28:04.295Z,20.00
2023-01-13T10:30:36.114Z,21.80
2023-01-13T10:33:09.983Z,19.20
2023-01-13T10:35:51.934Z,21.00
2023-01-13T10:38:20.483Z,20.50
2023-01-13T10:40:48.777Z,22.40
2023-01-13T10:43:15.305Z,23.25
2023-01-13T10:45:43.413Z,23.75
2023-01-13T10:48:13.918Z,22.00
2023-01-13T10:50:40.635Z,24.00
2023-01-13T10:53:22.646Z,25.20
2023-01-13T10:56:02.379Z,23.00
2023-01-13T10:58:29.161Z,23.75
2023-01-13T11:01:03.241Z,19.50
2023-01-13T11:03:41.704Z,18.00
2023-01-13T11:06:09.035Z,19.00
2023-01-13T11:08:46.156Z,15.80
2023-01-13T11:11:31.399Z,11.00
2023-01-13T11:14:20.497Z,9.50
2023-01-13T11:16:53.666Z,9.00
2023-01-13T11:19:23.019Z,10.50
2023-01-13T11:22:08.536Z,6.00
2023-01-13T11:24:53.637Z,5.40
2023-01-13T11:27:36.558Z,7.00
2023-01-13T11:30:10.045Z,7.00
2023-01-13T11:32:53.673Z,12.00
2023-01-13T11:35:21.676Z,5.00
2023-01-13T11:37:53.805Z,5.00
2023-01-13T11:40:23.148Z,4.00
2023-01-13T11:42:59.194Z,5.00
2023-01-13T11:45:28.656Z,4.00
2023-01-13T11:47:58.310Z,4.00
2023-01-13T11:50:51.264Z,6.00
2023-01-13T11:53:29.918Z,6.00
2023-01-13T11:56:13.253Z,4.25
2023-01-13T11:58:51.713Z,7.00
2023-01-13T12:01:26.644Z,4.40
2023-01-13T12:04:10.623Z,8.00
2023-01-13T12:06:41.345Z,7.60
2023-01-13T12:09:26.344Z,7.50
2023-01-13T12:12:20.050Z,8.00
2023-01-13T12:15:07.859Z,7.80
2023-01-13T12:17:44.090Z,8.00
2023-01-13T12:20:25.596Z,10.00
2023-01-13T12:22:53.943Z,7.00
2023-01-13T12:25:37.659Z,8.00
2023-01-13T12:28:11.677Z,6.00
2023-01-13T12:30:45.927Z,7.00
2023-01-13T12:33:44.500Z,5.00
2023-01-13T12:36:29.452Z,6.00
2023-01-13T12:38:55.894Z,5.00
2023-01-13T12:41:37.543Z,3.00
2023-01-13T12:44:20.380Z,3.00
2023-01-13T12:46:55.928Z,4.00
2023-01-13T12:49:22.375Z,3.00
2023-01-13T12:51:51.817Z,1.75
2023-01-13T12:54:30.430Z,1.00
2023-01-13T12:56:57.624Z,0.80
2023-01-13T12:59:24.090Z,0.00
2023-01-13T13:01:51.692Z,1.00
2023-01-13T13:04:41.070Z,1.00
2023-01-13T13:07:13.038Z,0.00
2023-01-13T13:09:55.650Z,3.00
2023-01-13T13:13:03.969Z,5.00
2023-01-13T13:15:34.783Z,1.00
2023-01-13T13:18:01.333Z,0.60
2023-01-13T13:20:46.608Z,1.50
2023-01-13T13:23:33.302Z,1.00
2023-01-13T13:26:25.069Z,1.00
2023-01-13T13:29:10.306Z,2.00
2023-01-13T13:31:50.021Z,3.00
2023-01-13T13:34:25.382Z,2.00
2023-01-13T13:37:14.088Z,1.00
2023-01-13T13:40:00.464Z,0.40
2023-01-13T13:42:48.443Z,0.00
2023-01-13T13:45:34.985Z,0.60
2023-01-13T13:48:18.176Z,1.00
2023-01-13T13:50:48.449Z,1.00
2023-01-13T13:53:14.940Z,2.00
2023-01-13T13:55:52.032Z,0.50
2023-01-13T13:58:18.648Z,2.00
2023-01-13T14:00:47.456Z,1.00
2023-01-13T14:03:24.837Z,0.50
2023-01-13T14:05:59.561Z,1.00
2023-01-13T14:08:27.285Z,1.00
2023-01-13T14:10:54.023Z,0.00
2023-01-13T14:13:22.309Z,1.00
2023-01-13T14:16:02.153Z,0.25
2023-01-13T14:18:31.076Z,0.25
2023-01-13T14:21:03.107Z,0.00
2023-01-13T14:23:30.573Z,0.00
2023-01-13T14:26:02.227Z,1.00
2023-01-13T14:28:30.188Z,2.00
2023-01-13T14:30:57.413Z,1.00
2023-01-13T14:33:34.091Z,1.00
2023-01-13T14:36:23.616Z,0.60
2023-01-13T14:39:05.432Z,1.40
2023-01-13T14:41:36.844Z,0.00
2023-01-13T14:44:21.529Z,1.50
2023-01-13T14:46:48.399Z,2.40
2023-01-13T14:49:20.880Z,1.60
2023-01-13T14:51:47.413Z,2.00
2023-01-13T14:54:38.715Z,1.00
2023-01-13T14:57:15.608Z,2.00
2023-01-13T14:59:51.871Z,0.60
2023-01-13T15:02:36.344Z,1.00
2023-01-13T15:05:24.297Z,0.40
2023-01-13T15:07:50.779Z,1.00
2023-01-13T15:10:18.155Z,1.00
2023-01-13T15:12:44.745Z,1.60
2023-01-13T15:15:25.845Z,1.20
2023-01-13T15:17:52.843Z,1.00
2023-01-13T15:20:20.684Z,1.00
2023-01-13T15:22:47.725Z,1.00
2023-01-13T15:25:15.069Z,2.00
2023-01-13T15:27:43.091Z,13.80
2023-01-13T15:30:17.012Z,5.00
2023-01-13T15:32:44.059Z,5.00
2023-01-13T15:35:14.749Z,8.50
2023-01-13T15:37:41.937Z,9.00
2023-01-13T15:40:14.020Z,13.00
2023-01-13T15:42:59.018Z,19.00
2023-01-13T15:45:44.151Z,17.25
2023-01-13T15:48:10.753Z,9.50
2023-01-13T15:50:37.226Z,6.00
2023-01-13T15:53:03.791Z,1.00
2023-01-13T15:55:30.711Z,0.00
2023-01-13T15:57:57.276Z,0.80
2023-01-13T16:00:23.842Z,5.00
2023-01-13T16:02:50.709Z,8.00
2023-01-13T16:05:17.393Z,7.00
2023-01-13T16:07:43.843Z,5.00
2023-01-13T16:10:18.768Z,2.20
2023-01-13T16:12:45.367Z,2.00
2023-01-13T16:15:15.580Z,3.40
2023-01-13T16:17:43.296Z,3.75
2023-01-13T16:20:13.654Z,5.00
2023-01-13T16:22:40.137Z,8.25
2023-01-13T16:25:07.007Z,4.50
2023-01-13T16:27:33.634Z,6.20
2023-01-13T16:30:00.121Z,6.20
2023-01-13T16:32:26.591Z,3.00
2023-01-13T16:34:53.017Z,7.00
2023-01-13T16:37:24.181Z,10.40
2023-01-13T16:39:51.389Z,5.50
2023-01-13T16:42:17.855Z,6.75
2023-01-13T16:44:44.467Z,1.00
2023-01-13T16:47:14.876Z,1.00
2023-01-13T16:49:41.570Z,16.40
2023-01-13T16:52:08.044Z,20.00
2023-01-13T16:54:34.502Z,7.00
2023-01-13T16:57:01.017Z,15.00
2023-01-13T16:59:27.523Z,2.00
2023-01-13T17:01:54.166Z,19.40
2023-01-13T17:04:23.617Z,4.40
2023-01-13T17:06:53.209Z,10.40
2023-01-13T17:09:21.541Z,7.00
2023-01-13T17:11:48.032Z,4.75
2023-01-13T17:14:18.401Z,7.00
2023-01-13T17:16:46.274Z,3.50
2023-01-13T17:19:13.344Z,10.00
2023-01-13T17:21:39.866Z,3.25
2023-01-13T17:24:07.949Z,7.20
2023-01-13T17:26:37.339Z,4.00
2023-01-13T17:29:08.917Z,9.80
2023-01-13T17:31:36.084Z,3.75
2023-01-13T17:34:02.958Z,5.00
2023-01-13T17:36:29.529Z,6.00
2023-01-13T17:38:56.694Z,9.75
2023-01-13T17:41:23.816Z,11.00
2023-01-13T17:43:50.399Z,8.00
2023-01-13T17:46:19.206Z,3.00
2023-01-13T17:48:46.423Z,6.00
2023-01-13T17:51:13.942Z,7.00
2023-01-13T17:53:40.825Z,7.00
2023-01-13T17:56:09.642Z,9.00
2023-01-13T17:58:36.718Z,10.00
2023-01-13T18:01:20.212Z,9.00
2023-01-13T18:03:47.148Z,3.40
2023-01-13T18:06:21.930Z,4.00
2023-01-13T18:08:48.887Z,6.00
2023-01-13T18:11:18.885Z,4.00
2023-01-13T18:13:46.628Z,3.00
2023-01-13T18:16:14.674Z,3.00
2023-01-13T18:18:42.415Z,4.00
2023-01-13T18:21:38.359Z,6.60
2023-01-13T18:24:24.242Z,7.00
2023-01-13T18:27:09.140Z,7.40
2023-01-13T18:29:35.609Z,7.60
2023-01-13T18:32:02.031Z,5.25
2023-01-13T18:34:28.522Z,3.20
2023-01-13T18:36:54.990Z,6.00
2023-01-13T18:39:21.491Z,6.00
2023-01-13T18:42:06.486Z,14.00
2023-01-13T18:44:32.970Z,10.00
2023-01-13T18:46:59.470Z,7.25
2023-01-13T18:49:26.102Z,10.50
2023-01-13T18:51:52.571Z,9.20
2023-01-13T18:54:19.729Z,7.00
2023-01-13T18:56:46.903Z,6.00
2023-01-13T18:59:13.496Z,8.25
2023-01-13T19:01:40.407Z,4.75
2023-01-13T19:04:10.684Z,1.00
2023-01-13T19:06:39.652Z,4.00
2023-01-13T19:09:11.172Z,3.00
2023-01-13T19:11:37.663Z,5.00
2023-01-13T19:14:04.136Z,1.00
2023-01-13T19:16:30.789Z,3.75
2023-01-13T19:18:57.316Z,6.00
2023-01-13T19:21:25.346Z,11.00
2023-01-13T19:23:55.861Z,2.80
2023-01-13T19:26:22.338Z,8.00
2023-01-13T19:28:50.381Z,1.40
2023-01-13T19:31:17.212Z,1.60
2023-01-13T19:33:43.777Z,3.60
2023-01-13T19:36:10.516Z,1.00
2023-01-13T19:38:37.578Z,5.60
2023-01-13T19:41:11.053Z,6.00
2023-01-13T19:43:57.281Z,11.00
2023-01-13T19:46:25.720Z,9.40
2023-01-13T19:48:52.231Z,6.00
2023-01-13T19:51:18.688Z,7.00
2023-01-13T19:53:46.954Z,4.60
2023-01-13T19:56:14.390Z,7.00
2023-01-13T19:58:42.075Z,11.00
2023-01-13T20:01:10.292Z,7.50
2023-01-13T20:03:37.767Z,5.00
2023-01-13T20:06:05.196Z,11.00
2023-01-13T20:08:31.666Z,6.00
2023-01-13T20:11:18.080Z,6.00
2023-01-13T20:13:44.527Z,5.50
2023-01-13T20:16:11.128Z,6.00
2023-01-13T20:18:37.638Z,6.00
2023-01-13T20:21:05.194Z,7.00
2023-01-13T20:23:31.652Z,8.00
2023-01-13T20:25:58.632Z,4.00
2023-01-13T20:28:25.089Z,7.50
2023-01-13T20:30:51.987Z,6.50
2023-01-13T20:33:18.473Z,10.00
2023-01-13T20:35:45.456Z,6.00
2023-01-13T20:38:12.136Z,3.75
2023-01-13T20:40:38.659Z,8.00
2023-01-13T20:43:05.468Z,9.25
2023-01-13T20:45:31.956Z,11.00
2023-01-13T20:47:58.811Z,15.00
2023-01-13T20:50:25.288Z,9.00
2023-01-13T20:52:52.647Z,12.20
2023-01-13T20:55:19.229Z,10.00
2023-01-13T20:57:48.875Z,9.40
2023-01-13T21:00:15.597Z,8.00
2023-01-13T21:02:43.998Z,7.00
2023-01-13T21:05:10.529Z,5.00
2023-01-13T21:07:37.000Z,6.00
2023-01-13T21:10:03.893Z,7.00
2023-01-13T21:12:49.159Z,6.00
2023-01-13T21:15:20.056Z,5.00
2023-01-13T21:18:07.718Z,4.00
2023-01-13T21:20:35.310Z,5.00
2023-01-13T21:23:02.457Z,4.00
2023-01-13T21:25:29.184Z,4.50
2023-01-13T21:27:58.750Z,4.00
2023-01-13T21:30:25.286Z,5.00
2023-01-13T21:32:51.800Z,5.00
2023-01-13T21:35:18.352Z,4.00
2023-01-13T21:37:44.829Z,5.00
2023-01-13T21:40:12.651Z,4.00
2023-01-13T21:42:57.821Z,3.00
2023-01-13T21:45:42.703Z,5.20
2023-01-13T21:48:09.250Z,3.00
2023-01-13T21:50:36.389Z,7.00
2023-01-13T21:53:02.913Z,5.00
2023-01-13T21:55:29.673Z,5.00
2023-01-13T21:58:01.010Z,6.00
2023-01-13T22:00:28.742Z,3.20
2023-01-13T22:02:55.569Z,4.00
2023-01-13T22:05:23.420Z,4.00
2023-01-13T22:07:50.243Z,3.60
2023-01-13T22:10:18.453Z,2.40
2023-01-13T22:12:45.059Z,4.00
2023-01-13T22:15:13.064Z,4.00
2023-01-13T22:17:41.151Z,5.75
2023-01-13T22:20:08.830Z,5.00
2023-01-13T22:22:37.030Z,3.75
2023-01-13T22:25:05.016Z,3.00
2023-01-13T22:27:31.540Z,3.75
2023-01-13T22:29:59.101Z,4.00
2023-01-13T22:32:25.588Z,4.00
2023-01-13T22:34:52.034Z,4.00
2023-01-13T22:37:18.688Z,4.60
2023-01-13T22:39:45.127Z,3.50
2023-01-13T22:42:11.759Z,3.60
2023-01-13T22:44:38.464Z,3.00
2023-01-13T22:47:05.074Z,3.80
2023-01-13T22:49:31.539Z,3.75
2023-01-13T22:51:57.989Z,4.00
2023-01-13T22:54:24.419Z,3.00
2023-01-13T22:56:50.861Z,3.00
2023-01-13T22:59:17.604Z,3.60
2023-01-13T23:01:44.186Z,4.00
2023-01-13T23:04:13.019Z,3.00
2023-01-13T23:06:39.916Z,3.00
2023-01-13T23:09:06.678Z,3.00
2023-01-13T23:11:33.435Z,4.00
2023-01-13T23:14:01.523Z,3.00
2023-01-13T23:16:29.439Z,2.60
2023-01-13T23:18:56.325Z,3.00
2023-01-13T23:21:24.159Z,2.00
2023-01-13T23:23:50.827Z,3.00
2023-01-13T23:26:17.455Z,3.00
2023-01-13T23:28:44.159Z,3.00
2023-01-13T23:31:12.778Z,3.00
2023-01-13T23:33:41.370Z,3.40
2023-01-13T23:36:08.505Z,2.00
2023-01-13T23:38:35.029Z,4.00
2023-01-13T23:41:04.837Z,5.50
2023-01-13T23:43:31.405Z,8.00
2023-01-13T23:46:03.780Z,10.20
2023-01-13T23:48:30.503Z,11.00
2023-01-13T23:50:58.219Z,12.00
2023-01-13T23:53:24.940Z,7.00
2023-01-13T23:55:57.082Z,5.00
2023-01-13T23:58:23.604Z,5.00
